Time;durP1;ratioP1;P1;durP2;ratioP2;P2;SDS_P1;SDS_P2;PMS_P1;PMS_P2;Temp;Humidity;BMP_temperature;BMP_pressure;BME280_temperature;BME280_humidity;BME280_pressure;Samples;Min_cycle;Max_cycle;Signal;HPM_P1;HPM_P2
2022/11/18 00:02:08;;;;;;;16.95;11.73;;;;;;;2.01;77.03;99132.30;2077835;85;31943;-59
2022/11/18 00:05:10;;;;;;;13.80;10.00;;;;;;;2.00;77.19;99126.61;2075615;85;33832;-59
2022/11/18 00:08:12;;;;;;;16.90;10.25;;;;;;;1.97;76.96;99124.95;2075927;85;30701;-59
2022/11/18 00:14:37;;;;;;;15.75;10.98;;;;;;;1.91;77.12;99134.83;2075805;85;29773;-58
2022/11/18 00:17:39;;;;;;;16.80;11.95;;;;;;;1.88;77.17;99119.95;2075745;85;32386;-59
2022/11/18 00:20:41;;;;;;;14.70;11.05;;;;;;;1.87;77.21;99114.73;2075729;85;34344;-59
2022/11/18 00:23:43;;;;;;;16.50;11.65;;;;;;;1.83;77.23;99115.27;2076068;85;30338;-59
2022/11/18 00:26:45;;;;;;;12.98;10.78;;;;;;;1.80;77.24;99114.93;2067212;85;27638;-59
2022/11/18 00:29:46;;;;;;;14.28;11.10;;;;;;;1.78;77.19;99117.22;2041895;85;29919;-59
2022/11/18 00:32:48;;;;;;;14.95;11.43;;;;;;;1.73;77.01;99108.14;2041732;87;32409;-59
2022/11/18 00:35:54;;;;;;;13.25;10.40;;;;;;;1.71;77.39;99111.72;2041831;87;34335;-58
2022/11/18 00:38:57;;;;;;;15.18;10.53;;;;;;;1.74;77.41;99109.84;2041832;87;30285;-59
2022/11/18 00:45:22;;;;;;;14.58;10.88;;;;;;;1.70;77.40;99117.92;2080387;85;30006;-59
2022/11/18 00:48:24;;;;;;;18.15;11.43;;;;;;;1.67;77.22;99103.90;2080636;85;32191;-58
2022/11/18 00:51:26;;;;;;;15.83;11.90;;;;;;;1.65;77.18;99109.71;2043906;87;34094;-59
2022/11/18 00:54:28;;;;;;;14.95;11.30;;;;;;;1.60;77.02;99106.78;2045437;87;30360;-58
2022/11/18 00:57:29;;;;;;;15.55;11.18;;;;;;;1.56;77.23;99105.19;2042762;84;28227;-59
2022/11/18 01:00:31;;;;;;;15.93;11.75;;;;;;;1.55;77.27;99101.66;2042667;87;29990;-59
2022/11/18 01:03:33;;;;;;;17.17;12.55;;;;;;;1.53;77.31;99100.84;2042644;87;32310;-59
2022/11/18 01:06:35;;;;;;;14.05;11.08;;;;;;;1.51;77.34;99095.63;2042996;87;33384;-58
2022/11/18 01:09:37;;;;;;;17.80;12.55;;;;;;;1.51;77.26;99098.27;2042959;87;30495;-58
2022/11/18 01:15:58;;;;;;;15.43;11.40;;;;;;;1.48;77.41;99102.31;2042973;87;30007;-59
2022/11/18 01:19:01;;;;;;;17.20;11.53;;;;;;;1.46;77.19;99094.05;2042932;87;32222;-58
2022/11/18 01:22:03;;;;;;;15.38;11.90;;;;;;;1.43;77.19;99092.83;2042925;87;34187;-59
2022/11/18 01:25:06;;;;;;;21.93;11.80;;;;;;;1.36;77.20;99081.13;2042835;87;31222;-59
2022/11/18 01:28:08;;;;;;;16.70;11.38;;;;;;;1.34;77.23;99080.31;2068033;85;27620;-59
2022/11/18 01:31:18;;;;;;;17.45;12.88;;;;;;;1.33;77.40;99091.78;2079021;85;28694;-59
2022/11/18 01:34:20;;;;;;;19.10;13.72;;;;;;;1.32;77.47;99084.80;2078865;85;31031;-58
2022/11/18 01:37:22;;;;;;;15.38;11.80;;;;;;;1.30;77.39;99091.91;2078518;85;34252;-58
2022/11/18 01:40:26;;;;;;;16.87;11.70;;;;;;;1.29;77.36;99080.94;2078763;85;29785;-58
2022/11/18 01:43:33;;;;;;;14.83;10.13;;;;;;;1.28;77.47;99094.16;2079312;85;27647;-58
2022/11/18 01:46:34;;;;;;;16.12;10.28;;;;;;;1.27;77.46;99091.11;2068908;85;29294;-58
2022/11/18 01:49:37;;;;;;;13.90;11.08;;;;;;;1.23;77.22;99089.03;2078692;85;32235;-58
2022/11/18 01:52:39;;;;;;;14.18;11.05;;;;;;;1.21;77.21;99086.45;2058064;85;33358;-58
2022/11/18 01:55:45;;;;;;;15.63;11.30;;;;;;;1.19;77.33;99079.04;2043462;87;29675;-58
2022/11/18 01:58:54;;;;;;;14.25;11.38;;;;;;;1.19;77.30;99081.67;2072365;85;27698;-58
2022/11/18 02:01:55;;;;;;;15.18;10.80;;;;;;;1.18;77.28;99076.43;2077830;85;30275;-59
2022/11/18 02:04:57;;;;;;;13.25;10.10;;;;;;;1.13;77.16;99067.82;2077772;85;32245;-58
2022/11/18 02:08:00;;;;;;;13.32;10.75;;;;;;;1.08;77.03;99073.69;2078105;85;34040;-58
2022/11/18 02:11:03;;;;;;;14.23;10.85;;;;;;;1.04;77.25;99067.17;2078116;85;29480;-59
2022/11/18 02:14:07;;;;;;;14.33;10.82;;;;;;;1.06;77.35;99069.78;2076744;85;27703;-61
2022/11/18 02:17:35;;;;;;;16.45;11.93;;;;;;;1.06;77.35;99077.70;2097344;84;29246;-67
2022/11/18 02:20:43;;;;;;;14.78;11.43;;;;;;;1.07;77.40;99083.38;2112967;83;31250;-59
2022/11/18 02:23:53;;;;;;;14.23;11.00;;;;;;;1.06;77.51;99069.78;2114927;84;33062;-58
2022/11/18 02:27:30;;;;;;;17.62;11.95;;;;;;;1.09;77.52;99070.13;2113019;84;29331;-58
2022/11/18 02:30:36;;;;;;;15.88;12.28;;;;;;;1.06;77.58;99071.11;2042090;87;27636;-59
2022/11/18 02:33:53;;;;;;;15.65;12.60;;;;;;;1.04;77.59;99078.20;2041658;87;29046;-60
2022/11/18 02:36:59;;;;;;;15.63;11.88;;;;;;;1.04;77.71;99093.55;2032685;87;31436;-59
2022/11/18 02:40:18;;;;;;;20.70;13.10;;;;;;;1.05;77.79;99094.43;2007333;88;34002;-60
2022/11/18 02:43:33;;;;;;;17.65;12.98;;;;;;;1.06;77.74;99097.01;2007181;88;29915;-62
2022/11/18 02:46:36;;;;;;;;;;;;;;;1.08;77.79;99079.80;2009804;88;27814;-59
2022/11/18 02:49:46;;;;;;;15.95;10.15;;;;;;;1.09;77.87;99074.09;2007355;88;29881;-61
2022/11/18 02:52:52;;;;;;;17.37;12.63;;;;;;;1.10;77.86;99072.71;2007391;88;31443;-59
2022/11/18 02:55:54;;;;;;;18.12;14.03;;;;;;;1.08;77.83;99063.13;2007346;88;33719;-63
2022/11/18 02:58:56;;;;;;;18.42;12.82;;;;;;;1.09;77.97;99067.50;2007034;88;29377;-59
2022/11/18 03:02:01;;;;;;;16.95;12.68;;;;;;;1.09;77.96;99061.75;2007794;88;27761;-60
2022/11/18 03:05:02;;;;;;;18.37;13.00;;;;;;;1.10;77.97;99059.52;2011939;87;29692;-59
2022/11/18 03:08:12;;;;;;;18.32;13.25;;;;;;;1.13;77.99;99057.27;2108527;84;31436;-59
2022/11/18 03:11:19;;;;;;;18.02;13.40;;;;;;;1.13;77.88;99066.03;2114884;84;32941;-57
2022/11/18 03:14:41;;;;;;;22.02;14.95;;;;;;;1.11;77.92;99054.66;2114723;84;29386;-57
2022/11/18 03:18:12;;;;;;;17.92;13.00;;;;;;;1.13;77.97;99048.03;2114584;83;27520;-59
2022/11/18 03:21:26;;;;;;;20.52;14.98;;;;;;;1.12;77.95;99047.16;2114664;84;28607;-58
2022/11/18 03:24:33;;;;;;;20.32;13.80;;;;;;;1.10;77.94;99039.74;2113645;84;32220;-58
2022/11/18 03:28:00;;;;;;;21.62;14.58;;;;;;;1.09;77.98;99046.40;2114520;84;34272;-58
2022/11/18 03:31:13;;;;;;;24.12;16.10;;;;;;;1.09;78.12;99043.76;2009637;88;29738;-58
2022/11/18 03:34:25;;;;;;;21.97;14.33;;;;;;;1.10;78.18;99038.90;2009136;88;27854;-58
2022/11/18 03:37:28;;;;;;;24.35;16.80;;;;;;;1.09;78.43;99047.25;1978062;88;29137;-58
2022/11/18 03:40:31;;;;;;;23.92;15.48;;;;;;;1.07;78.45;99049.09;1975942;90;31228;-58
2022/11/18 03:43:37;;;;;;;21.23;14.68;;;;;;;1.04;78.49;99051.35;1975474;90;34181;-59
2022/11/18 03:46:49;;;;;;;22.73;16.23;;;;;;;1.02;78.48;99044.41;1975709;90;29328;-59
2022/11/18 03:49:55;;;;;;;25.52;16.42;;;;;;;0.99;78.60;99045.81;1975602;90;27754;-58
2022/11/18 03:52:57;;;;;;;26.52;17.70;;;;;;;0.97;78.63;99052.47;1975676;90;28913;-58
2022/11/18 03:56:15;;;;;;;22.60;14.93;;;;;;;0.94;78.43;99047.28;1975769;90;32195;-60
2022/11/18 03:59:37;;;;;;;29.37;18.17;;;;;;;0.92;78.63;99037.23;1964762;89;33302;-59
2022/11/18 04:02:38;;;;;;;26.87;18.37;;;;;;;0.88;78.58;99037.80;1963546;90;30486;-59
2022/11/18 04:05:42;;;;;;;29.42;17.65;;;;;;;0.86;78.63;99042.69;1974236;89;27806;-66
2022/11/18 04:08:44;;;;;;;28.15;18.87;;;;;;;0.84;78.70;99034.83;2097632;84;28662;-59
2022/11/18 04:12:03;;;;;;;29.72;18.60;;;;;;;0.81;78.68;99034.92;2101302;84;31117;-64
2022/11/18 04:15:07;;;;;;;30.15;20.55;;;;;;;0.78;78.75;99035.48;2101124;84;34207;-72
2022/11/18 04:18:09;;;;;;;29.87;19.80;;;;;;;0.75;78.82;99042.56;2101687;84;28789;-62
2022/11/18 04:21:11;;;;;;;29.27;18.73;;;;;;;0.71;78.83;99040.92;2101084;84;27623;-58
2022/11/18 04:24:13;;;;;;;29.07;18.12;;;;;;;0.67;78.81;99037.11;2100931;84;29901;-66
2022/11/18 04:27:14;;;;;;;30.23;20.40;;;;;;;0.64;78.86;99039.39;2101174;84;31740;-58
2022/11/18 04:30:17;;;;;;;33.63;20.12;;;;;;;0.59;78.81;99036.02;2101326;84;33002;-66
2022/11/18 04:33:19;;;;;;;28.35;19.30;;;;;;;0.57;78.82;99032.56;2101140;84;29399;-58
2022/11/18 04:36:21;;;;;;;35.80;19.82;;;;;;;0.54;78.91;99033.52;2077626;84;27661;-68
2022/11/18 04:39:22;;;;;;;29.02;20.15;;;;;;;0.53;78.91;99033.11;2064837;86;28881;-58
2022/11/18 04:42:24;;;;;;;33.65;23.67;;;;;;;0.52;78.93;99043.24;2064606;86;32250;-60
2022/11/18 04:45:26;;;;;;;32.80;20.50;;;;;;;0.48;78.74;99036.80;2065236;86;33335;-68
2022/11/18 04:48:27;;;;;;;30.95;20.08;;;;;;;0.46;78.76;99042.09;2064868;86;30628;-66
2022/11/18 04:51:29;;;;;;;31.30;19.77;;;;;;;0.43;78.79;99041.73;2065375;86;27707;-59
2022/11/18 04:54:31;;;;;;;34.33;22.52;;;;;;;0.40;78.69;99046.23;2064991;85;29236;-58
2022/11/18 04:57:32;;;;;;;31.23;20.30;;;;;;;0.36;78.66;99045.91;2066976;85;31061;-58
2022/11/18 05:00:34;;;;;;;35.15;21.93;;;;;;;0.35;78.62;99049.45;2078989;85;33377;-59
2022/11/18 05:03:35;;;;;;;36.33;21.62;;;;;;;0.31;78.62;99053.94;2078985;85;29102;-60
2022/11/18 05:06:37;;;;;;;31.73;20.48;;;;;;;0.29;78.68;99059.23;2106369;84;28331;-64
2022/11/18 05:09:39;;;;;;;26.62;17.80;;;;;;;0.28;78.67;99056.66;2116052;84;29832;-60
2022/11/18 05:12:47;;;;;;;27.13;18.70;;;;;;;0.27;78.35;99062.36;2114814;84;31876;-60
2022/11/18 05:15:49;;;;;;;28.52;19.32;;;;;;;0.24;78.42;99065.55;2077900;85;34062;-59
2022/11/18 05:18:50;;;;;;;29.70;20.23;;;;;;;0.21;78.13;99071.77;2114609;84;30512;-59
2022/11/18 05:21:53;;;;;;;26.82;16.70;;;;;;;0.18;78.22;99083.70;2115132;84;27668;-60
2022/11/18 05:24:56;;;;;;;26.95;18.75;;;;;;;0.12;77.52;99083.41;2115050;84;29441;-63
2022/11/18 05:27:58;;;;;;;28.15;18.85;;;;;;;0.05;77.40;99082.30;2114966;84;31232;-58
2022/11/18 05:31:02;;;;;;;27.80;18.32;;;;;;;-0.02;77.69;99089.03;2114576;84;34143;-59
2022/11/18 05:34:04;;;;;;;23.52;15.23;;;;;;;-0.04;77.86;99082.94;2088765;84;29390;-66
2022/11/18 05:37:05;;;;;;;28.87;16.80;;;;;;;-0.02;77.90;99092.98;2080109;84;27628;-56
2022/11/18 05:40:09;;;;;;;35.85;21.42;;;;;;;-0.03;77.83;99096.98;2114689;84;29854;-56
2022/11/18 05:43:11;;;;;;;32.98;20.23;;;;;;;-0.03;77.81;99100.93;2076233;85;31713;-60
2022/11/18 05:46:13;;;;;;;28.00;17.60;;;;;;;-0.02;77.82;99108.78;2075930;85;34262;-56
2022/11/18 05:49:14;;;;;;;36.85;21.42;;;;;;;-0.02;77.46;99113.19;2075826;85;30483;-57
2022/11/18 05:52:16;;;;;;;30.55;20.55;;;;;;;-0.05;77.30;99122.48;2076036;85;27730;-56
2022/11/18 05:55:19;;;;;;;28.98;19.37;;;;;;;-0.08;77.34;99112.02;2075930;85;29901;-60
2022/11/18 05:58:20;;;;;;;30.17;19.37;;;;;;;-0.11;77.45;99111.66;2076104;85;31440;-59
2022/11/18 06:01:27;;;;;;;37.98;21.40;;;;;;;-0.12;77.38;99121.77;2076913;85;32753;-59
2022/11/18 06:04:34;;;;;;;32.08;20.70;;;;;;;-0.15;77.46;99135.00;2070290;85;29588;-59
2022/11/18 06:07:42;;;;;;;37.20;21.77;;;;;;;-0.17;77.24;99131.11;2042207;87;27697;-59
2022/11/18 06:10:44;;;;;;;33.05;19.92;;;;;;;-0.18;77.08;99136.39;2042149;86;29251;-60
2022/11/18 06:14:00;;;;;;;34.50;22.22;;;;;;;-0.21;77.08;99142.61;2042023;87;32360;-63
2022/11/18 06:17:05;;;;;;;33.45;20.20;;;;;;;-0.22;77.26;99149.20;1944291;91;34147;-63
2022/11/18 06:20:08;;;;;;;33.58;22.58;;;;;;;-0.20;77.31;99152.66;1944587;91;30462;-61
2022/11/18 06:23:11;;;;;;;35.52;22.58;;;;;;;-0.20;77.38;99151.35;1944653;91;27697;-59
2022/11/18 06:26:15;;;;;;;36.25;23.55;;;;;;;-0.21;77.16;99155.77;1944610;91;29603;-65
2022/11/18 06:29:18;;;;;;;36.43;25.33;;;;;;;-0.21;77.21;99158.40;1924631;91;31272;-65
2022/11/18 06:32:20;;;;;;;34.08;24.23;;;;;;;-0.23;77.07;99158.88;1944528;91;33945;-59
2022/11/18 06:35:22;;;;;;;38.90;24.40;;;;;;;-0.25;76.94;99168.58;1957534;90;30500;-62
2022/11/18 06:38:24;;;;;;;36.45;23.70;;;;;;;-0.26;77.00;99179.16;1961832;90;27759;-64
2022/11/18 06:41:26;;;;;;;41.45;25.65;;;;;;;-0.26;77.03;99180.00;1972390;90;29723;-70
2022/11/18 06:44:28;;;;;;;34.85;23.35;;;;;;;-0.24;77.31;99178.64;1959760;90;32274;-59
2022/11/18 06:47:29;;;;;;;40.67;24.92;;;;;;;-0.24;76.78;99176.00;1944389;91;34129;-59
2022/11/18 06:50:31;;;;;;;39.88;25.75;;;;;;;-0.24;77.05;99180.83;1973351;90;30542;-67
2022/11/18 06:53:34;;;;;;;41.37;26.42;;;;;;;-0.24;76.99;99188.73;2001703;86;27734;-59
2022/11/18 06:56:36;;;;;;;34.23;23.30;;;;;;;-0.25;76.92;99189.62;2042878;87;29882;-59
2022/11/18 06:59:38;;;;;;;37.35;23.38;;;;;;;-0.24;76.78;99187.84;2094852;83;31373;-59
2022/11/18 07:02:39;;;;;;;34.60;22.70;;;;;;;-0.30;76.12;99188.86;2069285;84;34148;-64
2022/11/18 07:05:41;;;;;;;35.70;24.07;;;;;;;-0.36;76.13;99196.45;2070025;85;30469;-58
2022/11/18 07:08:44;;;;;;;33.00;21.60;;;;;;;-0.39;76.35;99199.61;2050114;85;27664;-63
2022/11/18 07:11:46;;;;;;;37.08;24.27;;;;;;;-0.40;76.39;99208.41;2038773;87;29436;-60
2022/11/18 07:14:48;;;;;;;36.23;23.52;;;;;;;-0.39;76.60;99208.82;2038782;86;32367;-60
2022/11/18 07:17:49;;;;;;;38.40;24.40;;;;;;;-0.37;76.36;99216.23;2047368;85;34392;-60
2022/11/18 07:20:51;;;;;;;38.88;22.67;;;;;;;-0.38;76.45;99205.30;2073205;85;29678;-58
2022/11/18 07:23:54;;;;;;;43.23;23.27;;;;;;;-0.39;76.11;99218.03;2071688;85;27609;-59
2022/11/18 07:26:58;;;;;;;30.23;19.50;;;;;;;-0.45;75.83;99224.30;2055975;86;28446;-60
2022/11/18 07:29:59;;;;;;;35.00;22.17;;;;;;;-0.46;75.86;99217.30;2055052;85;31584;-61
2022/11/18 07:33:01;;;;;;;38.60;20.77;;;;;;;-0.50;75.67;99211.69;2060829;86;34124;-59
2022/11/18 07:36:09;;;;;;;33.45;19.62;;;;;;;-0.52;75.60;99213.48;2082687;85;30483;-62
2022/11/18 07:39:11;;;;;;;36.45;23.77;;;;;;;-0.54;75.31;99217.91;2083069;85;27716;-60
2022/11/18 07:42:12;;;;;;;36.58;24.37;;;;;;;-0.54;75.61;99212.64;2082991;85;30001;-65
2022/11/18 07:45:14;;;;;;;40.50;24.35;;;;;;;-0.54;75.78;99213.53;2087334;84;32347;-62
2022/11/18 07:48:15;;;;;;;38.05;21.77;;;;;;;-0.55;75.22;99213.11;2077986;84;34170;-63
2022/11/18 07:51:20;;;;;;;30.20;19.75;;;;;;;-0.53;75.28;99207.80;2072548;84;29712;-68
2022/11/18 07:54:22;;;;;;;39.78;24.57;;;;;;;-0.54;74.49;99223.17;2075654;84;27750;-71
2022/11/18 07:57:23;;;;;;;39.25;23.75;;;;;;;-0.58;74.91;99208.37;2060328;86;29332;-69
2022/11/18 08:00:25;;;;;;;47.33;29.67;;;;;;;-0.56;74.99;99207.86;2064288;86;31091;-69
2022/11/18 08:03:27;;;;;;;42.75;24.35;;;;;;;-0.51;75.12;99208.64;2066197;86;33737;-68
2022/11/18 08:06:32;;;;;;;45.63;28.07;;;;;;;-0.47;74.34;99206.36;2066346;86;29339;-69
2022/11/18 08:09:34;;;;;;;35.23;20.97;;;;;;;-0.46;74.14;99214.67;2067044;86;27672;-70
2022/11/18 08:12:35;;;;;;;43.52;26.62;;;;;;;-0.50;73.46;99203.36;2066443;86;29884;-69
2022/11/18 08:15:41;;;;;;;46.33;28.07;;;;;;;-0.47;73.76;99216.42;2066405;86;31411;-69
2022/11/18 08:18:43;;;;;;;48.17;29.10;;;;;;;-0.45;73.47;99211.14;2066097;86;34151;-70
2022/11/18 08:21:45;;;;;;;49.13;30.60;;;;;;;-0.43;73.57;99210.66;2066133;86;30684;-69
2022/11/18 08:24:47;;;;;;;51.95;29.98;;;;;;;-0.39;73.91;99210.14;2076010;84;27884;-69
2022/11/18 08:27:48;;;;;;;39.75;26.40;;;;;;;-0.33;73.04;99210.02;2102746;84;29972;-65
2022/11/18 08:30:50;;;;;;;40.75;27.42;;;;;;;-0.32;72.41;99212.59;2103317;84;31067;-69
2022/11/18 08:34:00;;;;;;;50.58;31.27;;;;;;;-0.31;72.68;99205.55;2102642;84;33816;-69
2022/11/18 08:37:02;;;;;;;43.05;27.42;;;;;;;-0.27;73.65;99211.17;2102882;84;30154;-68
2022/11/18 08:40:04;;;;;;;46.92;29.00;;;;;;;-0.24;72.52;99203.20;2103055;84;27628;-68
2022/11/18 08:43:07;;;;;;;47.67;29.67;;;;;;;-0.22;72.58;99213.69;2102932;84;28831;-69
2022/11/18 08:46:09;;;;;;;51.70;28.67;;;;;;;-0.23;72.52;99208.89;2102798;84;31011;-69
2022/11/18 08:49:11;;;;;;;47.70;30.17;;;;;;;-0.24;71.89;99208.91;2102890;84;32926;-69
2022/11/18 08:52:12;;;;;;;39.58;27.93;;;;;;;-0.25;71.78;99211.16;2102859;84;29398;-68
2022/11/18 08:55:14;;;;;;;42.58;28.15;;;;;;;-0.22;72.48;99213.25;2081601;84;27725;-68
2022/11/18 08:58:16;;;;;;;45.20;29.15;;;;;;;-0.22;71.81;99222.47;2066655;86;29289;-67
2022/11/18 09:01:18;;;;;;;42.67;28.23;;;;;;;-0.26;70.82;99226.05;2066085;86;31016;-69
2022/11/18 09:04:20;;;;;;;45.58;29.90;;;;;;;-0.27;71.29;99226.95;2073837;85;34224;-69
2022/11/18 09:07:21;;;;;;;43.58;28.80;;;;;;;-0.28;71.58;99234.90;2074119;85;30496;-69
2022/11/18 09:10:23;;;;;;;45.00;30.17;;;;;;;-0.23;72.05;99248.80;2073945;85;27618;-70
2022/11/18 09:13:25;;;;;;;43.95;28.57;;;;;;;-0.20;71.84;99252.25;2073978;85;28669;-69
2022/11/18 09:16:30;;;;;;;43.40;27.67;;;;;;;-0.15;71.11;99252.14;2074019;85;31044;-68
2022/11/18 09:19:31;;;;;;;40.15;27.93;;;;;;;-0.09;71.16;99257.70;2036907;87;28890;-69
2022/11/18 09:22:36;;;;;;;43.08;27.25;;;;;;;-0.09;71.26;99252.02;2036793;87;30348;-68
2022/11/18 09:25:38;;;;;;;39.50;26.75;;;;;;;-0.09;70.45;99255.95;2057706;85;27692;-69
2022/11/18 09:28:40;;;;;;;43.75;28.62;;;;;;;-0.06;70.87;99251.06;2111055;84;29045;-68
2022/11/18 09:31:42;;;;;;;46.05;29.35;;;;;;;-0.02;70.63;99256.68;2111225;84;31889;-69
2022/11/18 09:34:44;;;;;;;37.05;23.90;;;;;;;0.04;71.29;99257.83;2074056;85;33559;-67
2022/11/18 09:37:45;;;;;;;37.50;24.82;;;;;;;0.08;70.23;99266.08;2111083;84;29729;-68
2022/11/18 09:41:10;;;;;;;38.50;25.68;;;;;;;0.10;69.84;99263.40;2074182;85;27693;-68
2022/11/18 09:44:41;;;;;;;34.30;24.43;;;;;;;0.09;70.31;99269.13;2111325;84;29963;-67
2022/11/18 09:47:43;;;;;;;33.53;21.50;;;;;;;0.12;70.30;99262.92;2074189;85;32799;-68
2022/11/18 09:50:45;;;;;;;38.67;26.00;;;;;;;0.16;69.63;99264.58;2071968;85;34185;-70
2022/11/18 09:53:47;;;;;;;34.00;22.42;;;;;;;0.19;70.41;99261.00;2111286;84;29481;-68
2022/11/18 09:56:51;;;;;;;28.75;20.57;;;;;;;0.23;68.78;99274.08;2114666;84;27577;-68
2022/11/18 09:59:52;;;;;;;29.55;19.62;;;;;;;0.18;69.08;99265.85;2110347;84;29918;-66
2022/11/18 10:03:23;;;;;;;28.50;20.35;;;;;;;0.17;69.11;99269.41;2066980;86;31443;-71
2022/11/18 10:06:28;;;;;;;31.20;21.48;;;;;;;0.14;68.97;99272.53;2063431;86;33830;-69
2022/11/18 10:09:37;;;;;;;26.95;19.35;;;;;;;0.04;68.50;99268.83;2101584;84;30241;-68
2022/11/18 10:12:55;;;;;;;29.63;21.75;;;;;;;-0.03;68.33;99272.06;2077713;85;27597;-68
2022/11/18 10:16:21;;;;;;;29.40;21.35;;;;;;;-0.07;68.78;99275.19;2103342;84;29073;-67
2022/11/18 10:19:58;;;;;;;29.77;21.73;;;;;;;-0.08;68.47;99267.34;2067183;85;32235;-68
2022/11/18 10:23:19;;;;;;;30.05;22.35;;;;;;;-0.05;68.98;99268.13;2064702;86;34253;-69
2022/11/18 10:26:37;;;;;;;25.15;17.30;;;;;;;-0.06;68.55;99273.44;2066815;85;30343;-68
2022/11/18 10:29:39;;;;;;;28.35;19.15;;;;;;;-0.08;67.38;99273.45;2067048;85;27654;-67
2022/11/18 10:32:59;;;;;;;30.95;21.73;;;;;;;-0.06;67.38;99271.66;2067209;85;28668;-68
2022/11/18 10:36:25;;;;;;;34.40;21.15;;;;;;;-0.08;67.97;99276.09;1998314;88;32261;-69
2022/11/18 10:39:27;;;;;;;33.58;21.95;;;;;;;-0.02;68.31;99281.69;1966267;90;34101;-67
2022/11/18 10:42:45;;;;;;;29.77;21.48;;;;;;;0.03;68.24;99273.21;1966450;90;29422;-69
2022/11/18 10:45:46;;;;;;;35.40;23.67;;;;;;;0.11;68.32;99269.97;1966442;90;28419;-68
2022/11/18 10:48:48;;;;;;;34.80;22.62;;;;;;;0.19;68.05;99279.00;1966467;90;28689;-70
2022/11/18 10:52:13;;;;;;;36.05;23.92;;;;;;;0.24;67.59;99277.13;1944411;90;30492;-70
2022/11/18 10:55:24;;;;;;;35.58;23.92;;;;;;;0.32;68.19;99288.80;1966492;90;33653;-70
2022/11/18 10:58:29;;;;;;;35.63;23.73;;;;;;;0.36;67.58;99286.48;1966187;90;30521;-68
2022/11/18 11:01:31;;;;;;;26.85;18.20;;;;;;;0.34;67.74;99288.28;1966234;90;27873;-67
2022/11/18 11:04:33;;;;;;;36.55;24.67;;;;;;;0.37;66.89;99297.91;1966507;90;29130;-68
2022/11/18 11:07:37;;;;;;;37.65;23.67;;;;;;;0.30;66.58;99291.92;1945751;90;31173;-67
2022/11/18 11:10:38;;;;;;;38.30;24.45;;;;;;;0.23;67.16;99295.16;1966349;90;34126;-69
2022/11/18 11:13:42;;;;;;;39.35;25.45;;;;;;;0.19;67.39;99295.23;2047375;86;29755;-70
2022/11/18 11:16:51;;;;;;;37.58;22.32;;;;;;;0.18;67.46;99294.39;2067207;85;27680;-67
2022/11/18 11:20:20;;;;;;;31.52;19.95;;;;;;;0.19;66.76;99298.75;2115786;83;29228;-68
2022/11/18 11:23:25;;;;;;;34.90;23.52;;;;;;;0.14;66.36;99315.11;2102591;84;32038;-71
2022/11/18 11:26:57;;;;;;;33.95;21.87;;;;;;;0.09;67.75;99302.48;2101069;84;34166;-70
2022/11/18 11:30:15;;;;;;;43.80;25.77;;;;;;;0.07;67.51;99297.73;2101416;84;29429;-71
2022/11/18 11:33:31;;;;;;;43.98;26.97;;;;;;;0.01;67.87;99306.61;2079670;85;27791;-71
2022/11/18 11:36:57;;;;;;;43.52;25.05;;;;;;;-0.06;67.76;99312.47;2080602;85;28730;-70
2022/11/18 11:40:13;;;;;;;41.75;25.50;;;;;;;-0.10;67.79;99305.98;2077366;85;32223;-71
2022/11/18 11:44:01;;;;;;;37.48;25.02;;;;;;;-0.11;68.22;99306.45;2101627;84;33716;-71
2022/11/18 11:51:02;;;;;;;44.00;26.90;;;;;;;-0.13;68.67;99308.69;2081534;84;27719;-73
2022/11/18 11:54:17;;;;;;;46.53;27.45;;;;;;;-0.10;68.96;99297.66;2079787;85;28654;-72
2022/11/18 11:57:39;;;;;;;47.78;28.80;;;;;;;-0.10;68.89;99299.41;2090438;85;31047;-71
2022/11/18 12:00:46;;;;;;;43.73;27.80;;;;;;;-0.11;69.15;99298.99;2083920;84;34260;-73
2022/11/18 12:04:08;;;;;;;58.35;36.33;;;;;;;-0.11;69.15;99300.31;2099211;84;30386;-70
2022/11/18 12:07:25;;;;;;;102.78;64.45;;;;;;;-0.09;69.55;99294.56;2099440;84;27683;-72
2022/11/18 12:10:44;;;;;;;47.75;30.12;;;;;;;-0.08;69.54;99302.41;2066668;85;28764;-71
2022/11/18 12:13:54;;;;;;;50.43;31.10;;;;;;;-0.05;69.46;99297.55;2066942;86;31081;-72
2022/11/18 12:17:10;;;;;;;47.10;29.45;;;;;;;-0.05;69.52;99302.81;2066933;85;33116;-71
2022/11/18 12:20:45;;;;;;;40.03;25.65;;;;;;;-0.03;69.54;99304.97;2061522;85;29327;-72
2022/11/18 12:23:52;;;;;;;42.38;26.90;;;;;;;-0.02;69.41;99306.23;2062037;86;27751;-70
2022/11/18 12:26:54;;;;;;;45.43;27.80;;;;;;;-0.03;69.77;99304.50;2054013;86;28666;-71
2022/11/18 12:30:02;;;;;;;44.73;27.48;;;;;;;-0.04;69.86;99301.45;2062393;86;31846;-70
2022/11/18 12:33:01;;;;;;;;;;;;;;;-0.05;69.56;99312.03;2063960;86;32982;-73
2022/11/18 12:36:02;;;;;;;40.75;25.57;;;;;;;-0.11;69.52;99315.67;2067193;85;30145;-72
2022/11/18 12:39:29;;;;;;;42.03;26.30;;;;;;;-0.17;69.56;99307.89;2101685;84;27684;-73
2022/11/18 12:46:06;;;;;;;34.48;21.85;;;;;;;-0.31;69.55;99316.96;2077599;85;33117;-69
2022/11/18 12:49:28;;;;;;;34.10;21.12;;;;;;;-0.39;69.61;99315.39;2077476;85;34338;-75
2022/11/18 12:52:35;;;;;;;36.30;19.87;;;;;;;-0.42;69.67;99327.28;2053567;85;30183;-69
2022/11/18 12:55:37;;;;;;;33.02;19.87;;;;;;;-0.46;69.79;99340.50;2041880;87;27748;-73
2022/11/18 12:58:49;;;;;;;30.70;19.77;;;;;;;-0.48;69.76;99342.75;2042046;87;29502;-70
2022/11/18 13:02:00;;;;;;;29.02;17.73;;;;;;;-0.51;69.72;99337.55;2041288;86;31479;-70
2022/11/18 13:05:14;;;;;;;27.90;16.62;;;;;;;-0.52;69.46;99344.58;2068457;85;34216;-67
2022/11/18 13:08:17;;;;;;;25.55;16.27;;;;;;;-0.58;69.10;99338.58;2036000;87;29507;-71
2022/11/18 13:18:19;;;;;;;21.57;12.58;;;;;;;-0.66;68.51;99357.99;2074054;85;31070;-66
2022/11/18 13:24:50;;;;;;;17.60;11.45;;;;;;;-0.80;68.83;99352.98;2082743;84;30165;-62
2022/11/18 13:28:30;;;;;;;18.98;10.63;;;;;;;-0.82;68.15;99363.13;2072807;85;27634;-66
2022/11/18 13:32:00;;;;;;;17.98;9.80;;;;;;;-0.84;68.44;99368.85;2039569;87;29057;-69
2022/11/18 13:35:16;;;;;;;18.17;9.68;;;;;;;-0.88;67.54;99375.05;2039813;87;32261;-65
2022/11/18 13:38:23;;;;;;;14.33;9.18;;;;;;;-0.92;67.94;99388.70;2039730;87;33140;-66
2022/11/18 13:41:33;;;;;;;17.48;9.85;;;;;;;-0.92;68.09;99380.39;2039639;87;29397;-67
2022/11/18 13:44:37;;;;;;;16.55;10.72;;;;;;;-0.92;67.76;99405.37;2039915;87;27748;-69
2022/11/18 13:47:46;;;;;;;13.95;10.35;;;;;;;-0.94;67.66;99411.52;2040033;87;28649;-65
2022/11/18 13:50:52;;;;;;;17.85;10.63;;;;;;;-0.96;67.65;99408.05;2055333;85;31097;-68
2022/11/18 13:53:54;;;;;;;17.00;9.45;;;;;;;-0.97;67.82;99397.99;2092176;85;32964;-67
2022/11/18 13:56:56;;;;;;;14.68;8.83;;;;;;;-1.03;67.73;99381.47;2092062;85;29370;-71
2022/11/18 14:00:04;;;;;;;16.35;8.70;;;;;;;-1.07;67.41;99382.83;2092042;85;27791;-65
2022/11/18 14:03:27;;;;;;;19.75;10.10;;;;;;;-1.12;67.05;99389.05;2092706;85;28659;-64
2022/11/18 14:06:35;;;;;;;19.67;10.88;;;;;;;-1.16;67.36;99392.19;2093566;84;31599;-70
2022/11/18 14:09:37;;;;;;;21.30;11.65;;;;;;;-1.20;67.42;99397.06;2103409;84;33764;-71
2022/11/18 14:12:38;;;;;;;20.08;10.40;;;;;;;-1.19;67.38;99405.80;2079707;84;30441;-68
2022/11/18 14:15:40;;;;;;;29.37;14.53;;;;;;;-1.19;67.66;99401.44;2079776;84;28342;-65
2022/11/18 14:18:45;;;;;;;26.60;13.32;;;;;;;-1.15;67.47;99406.19;2103653;84;28815;-70
2022/11/18 14:21:46;;;;;;;22.35;10.98;;;;;;;-1.12;67.69;99410.08;2080720;84;31031;-68
2022/11/18 14:25:00;;;;;;;50.33;23.95;;;;;;;-1.10;67.64;99407.84;2069242;84;32920;-72
2022/11/18 14:28:19;;;;;;;263.45;104.07;;;;;;;-1.07;67.87;99405.17;2068640;85;29325;-70
2022/11/18 14:31:26;;;;;;;79.30;44.38;;;;;;;-1.05;67.97;99402.96;2068890;85;27564;-66
2022/11/18 14:34:29;;;;;;;22.85;13.78;;;;;;;-1.05;67.89;99414.79;2068781;86;28707;-69
2022/11/18 14:37:31;;;;;;;23.87;13.22;;;;;;;-1.05;68.03;99420.90;2100905;84;32222;-64
2022/11/18 14:40:33;;;;;;;18.82;11.05;;;;;;;-1.04;68.02;99422.64;2103103;84;34449;-66
2022/11/18 14:43:37;;;;;;;19.95;11.10;;;;;;;-1.05;68.13;99421.36;2103279;84;30521;-70
2022/11/18 14:46:39;;;;;;;16.30;10.50;;;;;;;-1.07;68.00;99422.25;2103831;84;27709;-71
2022/11/18 14:49:40;;;;;;;18.42;11.20;;;;;;;-1.07;67.88;99416.11;2102960;84;29476;-70
2022/11/18 14:52:42;;;;;;;21.12;11.97;;;;;;;-1.10;67.86;99422.30;2093366;84;31076;-72